Latest Weather Observations for Wattamolla

IDN60801

Issued at 6:32 pm EDT Friday 27 March 2015 (issued every 30 minutes, with the page automatically refreshed every 10 minutes)

About weather observations | Map of weather stations | Latest weather observations for NSW | Other Formats
Station Details ID: 066208 Name: WATTAMOLLA AWS Lat: -34.14 Lon: 151.12 Height: 44.0 m
Data from the previous 72 hours. | See also: Recent months for locations in New South Wales
Date/Time
EDT
Temp
°C
App
Temp
°C
Dew
Point
Rel
Hum
%
Delta-T
°C
Wind Press
QNH
hPa
Press
MSL
hPa
Rain
since 9 am
mm
Dir
 
Spd
km/h
Gust
km/h
Spd
kts
Gust
kts
27/06:30pm - - - - - WNW 13 19 7 10 - - -
27/06:00pm - - - - - WSW 15 19 8 10 - - -
27/05:30pm - - - - - WSW 17 22 9 12 - - -
27/05:00pm - - - - - WSW 13 22 7 12 - - -
27/04:30pm - - - - - WSW 19 32 10 17 - - -
27/04:00pm - - - - - WSW 13 24 7 13 - - -
27/03:30pm - - - - - SSW 15 26 8 14 - - -
27/03:00pm - - - - - S 19 30 10 16 - - -
27/02:30pm - - - - - SW 17 30 9 16 - - -
27/02:00pm - - - - - SW 13 22 7 12 - - -
27/01:30pm - - - - - W 17 28 9 15 - - -
27/01:00pm - - - - - W 19 33 10 18 - - -
27/12:30pm - - - - - W 20 33 11 18 - - -
27/12:00pm - - - - - WSW 20 32 11 17 - - -
27/11:30am - - - - - W 19 33 10 18 - - -
27/11:00am - - - - - W 28 37 15 20 - - -
27/10:30am - - - - - W 17 28 9 15 - - -
27/10:00am - - - - - WNW 19 28 10 15 - - -
27/09:30am - - - - - WNW 15 28 8 15 - - -
27/09:00am - - - - - WSW 13 20 7 11 - - -
27/08:30am - - - - - W 15 32 8 17 - - -
27/08:00am - - - - - WNW 28 48 15 26 - - -
27/07:30am - - - - - NW 17 35 9 19 - - -
27/07:00am - - - - - W 15 28 8 15 - - -
27/06:30am - - - - - W 15 30 8 16 - - -
27/06:00am - - - - - W 20 39 11 21 - - -
27/05:30am - - - - - NNW 11 22 6 12 - - -
27/05:00am - - - - - WNW 11 15 6 8 - - -
27/04:30am - - - - - W 9 11 5 6 - - -
27/04:00am - - - - - WSW 11 15 6 8 - - -
27/03:30am - - - - - WSW 13 19 7 10 - - -
27/03:00am - - - - - W 13 17 7 9 - - -
27/02:30am - - - - - WSW 15 20 8 11 - - -
27/02:00am - - - - - W 15 19 8 10 - - -
27/01:30am - - - - - SW 7 13 4 7 - - -
27/01:00am - - - - - WNW 7 15 4 8 - - -
27/12:30am - - - - - S 15 26 8 14 - - -
27/12:00am - - - - - SSE 13 22 7 12 - - -
 
Date/Time
EDT
Temp
°C
App
Temp
°C
Dew
Point
Rel
Hum
%
Delta-T
°C
Wind Press
QNH
hPa
Press
MSL
hPa
Rain
since 9 am
mm
Dir
 
Spd
km/h
Gust
km/h
Spd
kts
Gust
kts
26/11:30pm - - - - - WSW 13 19 7 10 - - -
26/11:00pm - - - - - SW 20 37 11 20 - - -
26/10:30pm - - - - - WSW 24 35 13 19 - - -
26/10:00pm - - - - - W 26 35 14 19 - - -
26/09:30pm - - - - - W 20 32 11 17 - - -
26/09:00pm - - - - - W 19 26 10 14 - - -
26/08:30pm - - - - - W 20 30 11 16 - - -
26/08:00pm - - - - - WNW 19 24 10 13 - - -
26/07:30pm - - - - - WNW 11 17 6 9 - - -
26/07:00pm - - - - - NNW 11 11 6 6 - - -
26/06:30pm - - - - - N 7 9 4 5 - - -
26/06:00pm - - - - - NW 6 9 3 5 - - -
26/05:30pm - - - - - WNW 7 17 4 9 - - -
26/05:00pm - - - - - WSW 17 26 9 14 - - -
26/04:30pm - - - - - WNW 11 17 6 9 - - -
26/04:00pm - - - - - W 17 24 9 13 - - -
26/03:30pm - - - - - WNW 13 26 7 14 - - -
26/03:00pm - - - - - WNW 17 30 9 16 - - -
26/02:30pm - - - - - WNW 20 30 11 16 - - -
26/02:00pm - - - - - NW 9 19 5 10 - - -
26/01:30pm - - - - - NW 15 22 8 12 - - -
26/01:00pm - - - - - S 11 15 6 8 - - -
26/12:30pm - - - - - SE 6 9 3 5 - - -
26/12:00pm - - - - - SSE 11 15 6 8 - - -
26/11:30am - - - - - S 13 17 7 9 - - -
26/11:00am - - - - - S 13 17 7 9 - - -
26/10:30am - - - - - SW 9 13 5 7 - - -
26/10:00am - - - - - SW 11 19 6 10 - - -
26/09:30am - - - - - W 13 20 7 11 - - -
26/09:00am - - - - - WNW 13 20 7 11 - - -
26/08:30am - - - - - NW 17 24 9 13 - - -
26/08:00am - - - - - WNW 15 20 8 11 - - -
26/07:30am - - - - - NW 17 20 9 11 - - -
26/07:00am - - - - - NW 17 20 9 11 - - -
26/06:30am - - - - - NW 17 22 9 12 - - -
26/06:00am - - - - - NW 19 20 10 11 - - -
26/05:30am - - - - - NW 15 17 8 9 - - -
26/05:00am - - - - - NW 15 19 8 10 - - -
26/04:30am - - - - - NW 11 15 6 8 - - -
26/04:00am - - - - - NW 13 15 7 8 - - -
26/03:30am - - - - - NW 13 17 7 9 - - -
26/03:00am - - - - - NW 15 17 8 9 - - -
26/02:30am - - - - - NW 15 17 8 9 - - -
26/02:00am - - - - - NNW 9 11 5 6 - - -
26/01:30am - - - - - NNW 11 15 6 8 - - -
26/01:00am - - - - - N 15 17 8 9 - - -
26/12:30am - - - - - NNW 13 15 7 8 - - -
26/12:00am - - - - - N 13 15 7 8 - - -
 
Date/Time
EDT
Temp
°C
App
Temp
°C
Dew
Point
Rel
Hum
%
Delta-T
°C
Wind Press
QNH
hPa
Press
MSL
hPa
Rain
since 9 am
mm
Dir
 
Spd
km/h
Gust
km/h
Spd
kts
Gust
kts
25/11:30pm - - - - - N 13 17 7 9 - - -
25/11:00pm - - - - - ENE 15 20 8 11 - - -
25/10:30pm - - - - - NNE 11 15 6 8 - - -
25/10:00pm - - - - - ESE 13 19 7 10 - - -
25/09:30pm - - - - - E 13 17 7 9 - - -
25/09:00pm - - - - - SE 15 24 8 13 - - -
25/08:30pm - - - - - SE 13 19 7 10 - - -
25/08:00pm - - - - - SE 19 26 10 14 - - -
25/07:30pm - - - - - SE 22 30 12 16 - - -
25/07:00pm - - - - - SE 24 32 13 17 - - -
25/06:30pm - - - - - SSE 24 30 13 16 - - -
25/06:00pm - - - - - SSE 22 28 12 15 - - -
25/05:30pm - - - - - S 22 32 12 17 - - -
25/05:00pm - - - - - S 22 32 12 17 - - -
25/04:30pm - - - - - S 22 32 12 17 - - -
25/04:00pm - - - - - S 30 37 16 20 - - -
25/03:30pm - - - - - S 32 39 17 21 - - -
25/03:00pm - - - - - SSE 26 35 14 19 - - -
25/02:30pm - - - - - S 33 46 18 25 - - -
25/02:00pm - - - - - S 37 41 20 22 - - -
25/01:30pm - - - - - S 39 48 21 26 - - -
25/01:00pm - - - - - S 35 41 19 22 - - -
25/12:30pm - - - - - S 35 44 19 24 - - -
25/12:00pm - - - - - S 35 44 19 24 - - -
25/11:30am - - - - - S 43 52 23 28 - - -
25/11:00am - - - - - S 44 52 24 28 - - -
25/10:30am - - - - - S 43 54 23 29 - - -
25/10:00am - - - - - S 43 50 23 27 - - -
25/09:30am - - - - - S 39 48 21 26 - - -
25/09:00am - - - - - S 35 48 19 26 - - -
25/08:30am - - - - - S 33 44 18 24 - - -
25/08:00am - - - - - S 33 44 18 24 - - -
25/07:30am - - - - - S 33 48 18 26 - - -
25/07:00am - - - - - S 43 56 23 30 - - -
25/06:59am - - - - - S 43 61 23 33 - - -
25/06:30am - - - - - S 43 54 23 29 - - -
25/06:00am - - - - - S 39 52 21 28 - - -
25/05:30am - - - - - S 35 50 19 27 - - -
25/05:01am - - - - - S 33 52 18 28 - - -
25/05:00am - - - - - S 35 52 19 28 - - -
25/04:30am - - - - - S 33 52 18 28 - - -
25/04:11am - - - - - S 30 50 16 27 - - -
25/04:00am - - - - - S 30 44 16 24 - - -
25/03:33am - - - - - S 30 48 16 26 - - -
25/03:30am - - - - - S 32 48 17 26 - - -
25/03:00am - - - - - S 32 48 17 26 - - -
25/02:30am - - - - - S 44 57 24 31 - - -
25/02:07am - - - - - S 28 50 15 27 - - -
25/02:06am - - - - - SSW 26 44 14 24 - - -
25/02:00am - - - - - SSW 17 28 9 15 - - -
25/01:30am - - - - - S 22 35 12 19 - - -
25/01:00am - - - - - S 41 50 22 27 - - -
25/12:30am - - - - - S 44 56 24 30 - - -
25/12:00am - - - - - S 48 54 26 29 - - -
 
Date/Time
EDT
Temp
°C
App
Temp
°C
Dew
Point
Rel
Hum
%
Delta-T
°C
Wind Press
QNH
hPa
Press
MSL
hPa
Rain
since 9 am
mm
Dir
 
Spd
km/h
Gust
km/h
Spd
kts
Gust
kts
24/11:30pm - - - - - S 52 59 28 32 - - -
24/11:00pm - - - - - S 48 56 26 30 - - -
24/10:41pm - - - - - S 30 48 16 26 - - -
24/10:30pm - - - - - S 28 35 15 19 - - -
24/10:00pm - - - - - S 28 32 15 17 - - -
24/09:30pm - - - - - S 19 30 10 16 - - -
24/09:00pm - - - - - S 26 32 14 17 - - -
24/08:30pm - - - - - S 26 30 14 16 - - -
24/08:00pm - - - - - S 26 30 14 16 - - -
24/07:30pm - - - - - S 30 33 16 18 - - -
24/07:00pm - - - - - S 28 35 15 19 - - -

Other Formats:

Comma delimited format used in spreadsheet applications
http://www.bom.gov.au/fwo/IDN60801/IDN60801.95752.axf

JavaScript Object Notation format (JSON) in row-major order
http://www.bom.gov.au/fwo/IDN60801/IDN60801.95752.json